Dyer, Kentucky
Current Conditions -  °F | °C
As of 4:24 PM on Sunday 23 Nov 2014 (Local Time) from KFTK Reporting Station
Moderate Rain Moderate Rain  
Wind Chill: 54°   Ceiling: 700
Heat Index: 54°   Visibility: 1.5mi
Dew Point: 52°   Wind: 13mph
Humidity: 94%   Direction: 100°E
Pressure: 29.44"   Gusts: NA
Location:  37.7438°N, 86.2725°W
Report Text: KFTK 232224Z 10011KT 1 1/2SM RA BR FEW002 BKN007 OVC012 12/11 A2944 RMK PRESFR
Loading
Personal Weather Stations






























Interactive Weather Map New forecast layout! Learn more

10-Day Weather Forecast

Advertisements
Track Severe Weather on mobile